sensor_id;sensor_type;location;lat;lon;timestamp;P1;durP1;ratioP1;P2;durP2;ratioP2
36355;SDS011;22384;54.302;18.596;2024-02-16T00:00:01;90.90;;;32.22;;
36355;SDS011;22384;54.302;18.596;2024-02-16T00:02:28;73.53;;;35.38;;
36355;SDS011;22384;54.302;18.596;2024-02-16T00:04:54;87.43;;;40.55;;
36355;SDS011;22384;54.302;18.596;2024-02-16T00:07:20;74.05;;;33.40;;
36355;SDS011;22384;54.302;18.596;2024-02-16T00:09:46;80.72;;;37.90;;
36355;SDS011;22384;54.302;18.596;2024-02-16T00:12:12;69.28;;;32.13;;
36355;SDS011;22384;54.302;18.596;2024-02-16T00:14:39;60.45;;;26.25;;
36355;SDS011;22384;54.302;18.596;2024-02-16T00:17:06;57.17;;;25.00;;
36355;SDS011;22384;54.302;18.596;2024-02-16T00:19:32;51.83;;;24.65;;
36355;SDS011;22384;54.302;18.596;2024-02-16T00:21:58;59.10;;;26.02;;
36355;SDS011;22384;54.302;18.596;2024-02-16T00:24:25;54.55;;;25.40;;
36355;SDS011;22384;54.302;18.596;2024-02-16T00:26:51;57.00;;;23.95;;
36355;SDS011;22384;54.302;18.596;2024-02-16T00:29:17;62.97;;;27.90;;
36355;SDS011;22384;54.302;18.596;2024-02-16T00:31:44;97.18;;;35.45;;
36355;SDS011;22384;54.302;18.596;2024-02-16T00:34:10;238.90;;;63.15;;
36355;SDS011;22384;54.302;18.596;2024-02-16T00:36:36;242.18;;;63.88;;
36355;SDS011;22384;54.302;18.596;2024-02-16T00:39:03;372.35;;;91.70;;
36355;SDS011;22384;54.302;18.596;2024-02-16T00:41:29;354.35;;;91.60;;
36355;SDS011;22384;54.302;18.596;2024-02-16T00:43:55;102.93;;;37.30;;
36355;SDS011;22384;54.302;18.596;2024-02-16T00:46:24;58.38;;;25.48;;
36355;SDS011;22384;54.302;18.596;2024-02-16T00:48:51;60.85;;;26.63;;
36355;SDS011;22384;54.302;18.596;2024-02-16T00:51:17;131.10;;;43.10;;
36355;SDS011;22384;54.302;18.596;2024-02-16T00:53:43;110.85;;;37.38;;
36355;SDS011;22384;54.302;18.596;2024-02-16T00:56:09;111.45;;;38.17;;
36355;SDS011;22384;54.302;18.596;2024-02-16T00:58:36;103.30;;;34.53;;
36355;SDS011;22384;54.302;18.596;2024-02-16T01:01:03;242.55;;;69.72;;
36355;SDS011;22384;54.302;18.596;2024-02-16T01:03:30;129.13;;;43.58;;
36355;SDS011;22384;54.302;18.596;2024-02-16T01:05:56;63.47;;;27.77;;
36355;SDS011;22384;54.302;18.596;2024-02-16T01:08:22;47.50;;;22.73;;
36355;SDS011;22384;54.302;18.596;2024-02-16T01:10:48;53.08;;;24.10;;
36355;SDS011;22384;54.302;18.596;2024-02-16T01:13:14;60.08;;;25.98;;
36355;SDS011;22384;54.302;18.596;2024-02-16T01:15:40;52.05;;;24.45;;
36355;SDS011;22384;54.302;18.596;2024-02-16T01:18:06;51.70;;;22.48;;
36355;SDS011;22384;54.302;18.596;2024-02-16T01:20:32;54.88;;;24.65;;
36355;SDS011;22384;54.302;18.596;2024-02-16T01:22:58;49.28;;;23.77;;
36355;SDS011;22384;54.302;18.596;2024-02-16T01:25:25;57.88;;;23.85;;
36355;SDS011;22384;54.302;18.596;2024-02-16T01:27:51;57.95;;;24.40;;
36355;SDS011;22384;54.302;18.596;2024-02-16T01:30:17;55.28;;;24.55;;
36355;SDS011;22384;54.302;18.596;2024-02-16T01:32:45;53.83;;;22.92;;
36355;SDS011;22384;54.302;18.596;2024-02-16T01:35:11;62.65;;;24.85;;
36355;SDS011;22384;54.302;18.596;2024-02-16T01:37:39;61.50;;;24.63;;
36355;SDS011;22384;54.302;18.596;2024-02-16T01:40:06;55.05;;;24.35;;
36355;SDS011;22384;54.302;18.596;2024-02-16T01:42:33;52.50;;;23.52;;
36355;SDS011;22384;54.302;18.596;2024-02-16T01:45:00;59.70;;;23.88;;
36355;SDS011;22384;54.302;18.596;2024-02-16T01:47:26;63.28;;;24.90;;
36355;SDS011;22384;54.302;18.596;2024-02-16T01:49:52;56.80;;;24.08;;
36355;SDS011;22384;54.302;18.596;2024-02-16T01:52:18;57.38;;;25.02;;
36355;SDS011;22384;54.302;18.596;2024-02-16T01:54:45;58.15;;;25.67;;
36355;SDS011;22384;54.302;18.596;2024-02-16T01:57:11;59.80;;;24.88;;
36355;SDS011;22384;54.302;18.596;2024-02-16T01:59:37;88.22;;;30.10;;
36355;SDS011;22384;54.302;18.596;2024-02-16T02:02:05;110.13;;;34.45;;
36355;SDS011;22384;54.302;18.596;2024-02-16T02:04:32;83.00;;;30.13;;
36355;SDS011;22384;54.302;18.596;2024-02-16T02:06:59;103.10;;;33.17;;
36355;SDS011;22384;54.302;18.596;2024-02-16T02:09:25;104.32;;;33.25;;
36355;SDS011;22384;54.302;18.596;2024-02-16T02:11:51;86.05;;;31.55;;
36355;SDS011;22384;54.302;18.596;2024-02-16T02:14:17;85.35;;;29.48;;
36355;SDS011;22384;54.302;18.596;2024-02-16T02:16:43;76.47;;;27.45;;
36355;SDS011;22384;54.302;18.596;2024-02-16T02:19:10;83.95;;;30.63;;
36355;SDS011;22384;54.302;18.596;2024-02-16T02:21:36;78.57;;;29.45;;
36355;SDS011;22384;54.302;18.596;2024-02-16T02:24:02;83.20;;;31.08;;
36355;SDS011;22384;54.302;18.596;2024-02-16T02:26:28;124.68;;;38.17;;
36355;SDS011;22384;54.302;18.596;2024-02-16T02:28:55;109.95;;;35.83;;
36355;SDS011;22384;54.302;18.596;2024-02-16T02:31:21;111.82;;;37.92;;
36355;SDS011;22384;54.302;18.596;2024-02-16T02:33:47;122.70;;;39.50;;
36355;SDS011;22384;54.302;18.596;2024-02-16T02:36:13;106.28;;;37.47;;
36355;SDS011;22384;54.302;18.596;2024-02-16T02:38:39;89.40;;;31.73;;
36355;SDS011;22384;54.302;18.596;2024-02-16T02:41:05;81.72;;;29.88;;
36355;SDS011;22384;54.302;18.596;2024-02-16T02:43:31;92.43;;;33.33;;
36355;SDS011;22384;54.302;18.596;2024-02-16T02:45:57;89.88;;;33.50;;
36355;SDS011;22384;54.302;18.596;2024-02-16T02:48:23;111.57;;;36.78;;
36355;SDS011;22384;54.302;18.596;2024-02-16T02:50:49;114.10;;;38.50;;
36355;SDS011;22384;54.302;18.596;2024-02-16T02:53:15;98.35;;;36.05;;
36355;SDS011;22384;54.302;18.596;2024-02-16T02:55:43;102.03;;;38.38;;
36355;SDS011;22384;54.302;18.596;2024-02-16T02:58:09;110.85;;;37.65;;
36355;SDS011;22384;54.302;18.596;2024-02-16T03:00:35;91.13;;;32.78;;
36355;SDS011;22384;54.302;18.596;2024-02-16T03:03:01;105.75;;;38.20;;
36355;SDS011;22384;54.302;18.596;2024-02-16T03:05:27;126.32;;;40.80;;
36355;SDS011;22384;54.302;18.596;2024-02-16T03:07:53;117.50;;;41.35;;
36355;SDS011;22384;54.302;18.596;2024-02-16T03:10:20;109.13;;;42.33;;
36355;SDS011;22384;54.302;18.596;2024-02-16T03:12:48;107.10;;;42.78;;
36355;SDS011;22384;54.302;18.596;2024-02-16T03:15:15;96.50;;;37.50;;
36355;SDS011;22384;54.302;18.596;2024-02-16T03:17:41;94.65;;;39.45;;
36355;SDS011;22384;54.302;18.596;2024-02-16T03:20:07;100.53;;;41.47;;
36355;SDS011;22384;54.302;18.596;2024-02-16T03:22:34;108.43;;;41.40;;
36355;SDS011;22384;54.302;18.596;2024-02-16T03:25:00;125.38;;;51.17;;
36355;SDS011;22384;54.302;18.596;2024-02-16T03:27:26;94.43;;;39.60;;
36355;SDS011;22384;54.302;18.596;2024-02-16T03:29:52;86.50;;;36.10;;
36355;SDS011;22384;54.302;18.596;2024-02-16T03:32:18;81.88;;;34.63;;
36355;SDS011;22384;54.302;18.596;2024-02-16T03:34:44;110.63;;;44.85;;
36355;SDS011;22384;54.302;18.596;2024-02-16T03:37:10;191.68;;;78.88;;
36355;SDS011;22384;54.302;18.596;2024-02-16T03:39:36;206.10;;;94.40;;
36355;SDS011;22384;54.302;18.596;2024-02-16T03:42:02;94.20;;;47.35;;
36355;SDS011;22384;54.302;18.596;2024-02-16T03:44:29;86.55;;;41.20;;
36355;SDS011;22384;54.302;18.596;2024-02-16T03:46:55;83.55;;;37.35;;
36355;SDS011;22384;54.302;18.596;2024-02-16T03:49:21;86.15;;;37.83;;
36355;SDS011;22384;54.302;18.596;2024-02-16T03:51:47;76.15;;;33.90;;
36355;SDS011;22384;54.302;18.596;2024-02-16T03:54:13;78.53;;;37.22;;
36355;SDS011;22384;54.302;18.596;2024-02-16T03:56:39;72.50;;;33.85;;
36355;SDS011;22384;54.302;18.596;2024-02-16T03:59:05;77.35;;;34.00;;
36355;SDS011;22384;54.302;18.596;2024-02-16T04:01:31;84.60;;;35.17;;
36355;SDS011;22384;54.302;18.596;2024-02-16T04:03:57;81.50;;;34.08;;
36355;SDS011;22384;54.302;18.596;2024-02-16T04:06:23;73.93;;;33.65;;
36355;SDS011;22384;54.302;18.596;2024-02-16T04:08:49;92.13;;;38.63;;
36355;SDS011;22384;54.302;18.596;2024-02-16T04:11:15;85.97;;;37.13;;
36355;SDS011;22384;54.302;18.596;2024-02-16T04:13:42;84.95;;;37.72;;
36355;SDS011;22384;54.302;18.596;2024-02-16T04:16:08;91.38;;;38.22;;
36355;SDS011;22384;54.302;18.596;2024-02-16T04:18:34;101.30;;;40.45;;
36355;SDS011;22384;54.302;18.596;2024-02-16T04:21:00;112.25;;;43.08;;
36355;SDS011;22384;54.302;18.596;2024-02-16T04:23:26;122.18;;;46.00;;
36355;SDS011;22384;54.302;18.596;2024-02-16T04:25:52;125.38;;;46.33;;
36355;SDS011;22384;54.302;18.596;2024-02-16T04:28:18;90.32;;;37.67;;
36355;SDS011;22384;54.302;18.596;2024-02-16T04:30:44;96.80;;;41.80;;
36355;SDS011;22384;54.302;18.596;2024-02-16T04:33:11;87.65;;;40.92;;
36355;SDS011;22384;54.302;18.596;2024-02-16T04:35:37;73.53;;;35.40;;
36355;SDS011;22384;54.302;18.596;2024-02-16T04:38:03;80.10;;;37.33;;
36355;SDS011;22384;54.302;18.596;2024-02-16T04:40:33;72.03;;;34.03;;
36355;SDS011;22384;54.302;18.596;2024-02-16T04:43:00;69.40;;;34.35;;
36355;SDS011;22384;54.302;18.596;2024-02-16T04:45:26;68.28;;;33.42;;
36355;SDS011;22384;54.302;18.596;2024-02-16T04:47:55;69.25;;;32.72;;
36355;SDS011;22384;54.302;18.596;2024-02-16T04:50:21;64.50;;;31.55;;
36355;SDS011;22384;54.302;18.596;2024-02-16T04:52:47;67.70;;;34.85;;
36355;SDS011;22384;54.302;18.596;2024-02-16T04:55:13;71.35;;;34.50;;
36355;SDS011;22384;54.302;18.596;2024-02-16T04:57:39;66.78;;;33.25;;
36355;SDS011;22384;54.302;18.596;2024-02-16T05:00:06;72.88;;;35.55;;
36355;SDS011;22384;54.302;18.596;2024-02-16T05:02:34;72.63;;;35.58;;
36355;SDS011;22384;54.302;18.596;2024-02-16T05:05:00;73.00;;;35.22;;
36355;SDS011;22384;54.302;18.596;2024-02-16T05:07:26;68.45;;;34.88;;
36355;SDS011;22384;54.302;18.596;2024-02-16T05:09:52;65.53;;;32.40;;
36355;SDS011;22384;54.302;18.596;2024-02-16T05:12:23;81.30;;;37.00;;
36355;SDS011;22384;54.302;18.596;2024-02-16T05:14:52;70.75;;;35.22;;
36355;SDS011;22384;54.302;18.596;2024-02-16T05:17:18;71.85;;;35.83;;
36355;SDS011;22384;54.302;18.596;2024-02-16T05:19:45;67.18;;;34.47;;
36355;SDS011;22384;54.302;18.596;2024-02-16T05:22:11;80.57;;;36.72;;
36355;SDS011;22384;54.302;18.596;2024-02-16T05:24:37;74.70;;;35.78;;
36355;SDS011;22384;54.302;18.596;2024-02-16T05:27:04;72.75;;;35.95;;
36355;SDS011;22384;54.302;18.596;2024-02-16T05:29:30;69.40;;;34.90;;
36355;SDS011;22384;54.302;18.596;2024-02-16T05:31:56;67.40;;;35.28;;
36355;SDS011;22384;54.302;18.596;2024-02-16T05:34:22;68.65;;;32.75;;
36355;SDS011;22384;54.302;18.596;2024-02-16T05:36:49;71.32;;;34.75;;
36355;SDS011;22384;54.302;18.596;2024-02-16T05:39:15;61.90;;;32.90;;
36355;SDS011;22384;54.302;18.596;2024-02-16T05:41:56;62.80;;;35.03;;
36355;SDS011;22384;54.302;18.596;2024-02-16T05:44:22;71.28;;;34.80;;
36355;SDS011;22384;54.302;18.596;2024-02-16T05:46:48;67.05;;;35.70;;
36355;SDS011;22384;54.302;18.596;2024-02-16T05:49:15;66.43;;;34.58;;
36355;SDS011;22384;54.302;18.596;2024-02-16T05:51:41;66.20;;;35.00;;
36355;SDS011;22384;54.302;18.596;2024-02-16T05:54:07;82.22;;;38.08;;
36355;SDS011;22384;54.302;18.596;2024-02-16T05:56:34;75.00;;;37.72;;
36355;SDS011;22384;54.302;18.596;2024-02-16T05:59:02;71.82;;;38.08;;
36355;SDS011;22384;54.302;18.596;2024-02-16T06:01:31;67.95;;;34.78;;
36355;SDS011;22384;54.302;18.596;2024-02-16T06:03:57;64.75;;;35.50;;
36355;SDS011;22384;54.302;18.596;2024-02-16T06:06:23;70.35;;;37.22;;
36355;SDS011;22384;54.302;18.596;2024-02-16T06:08:49;73.80;;;37.60;;
36355;SDS011;22384;54.302;18.596;2024-02-16T06:11:15;71.10;;;36.92;;
36355;SDS011;22384;54.302;18.596;2024-02-16T06:13:41;73.03;;;36.97;;
36355;SDS011;22384;54.302;18.596;2024-02-16T06:16:07;68.80;;;37.13;;
36355;SDS011;22384;54.302;18.596;2024-02-16T06:18:34;73.80;;;38.33;;
36355;SDS011;22384;54.302;18.596;2024-02-16T06:21:01;66.00;;;37.33;;
36355;SDS011;22384;54.302;18.596;2024-02-16T06:23:27;67.28;;;36.72;;
36355;SDS011;22384;54.302;18.596;2024-02-16T06:25:53;72.22;;;37.22;;
36355;SDS011;22384;54.302;18.596;2024-02-16T06:28:19;78.97;;;39.45;;
36355;SDS011;22384;54.302;18.596;2024-02-16T06:30:45;76.18;;;40.83;;
36355;SDS011;22384;54.302;18.596;2024-02-16T06:33:11;73.20;;;38.65;;
36355;SDS011;22384;54.302;18.596;2024-02-16T06:35:37;76.20;;;38.63;;
36355;SDS011;22384;54.302;18.596;2024-02-16T06:38:03;79.47;;;39.65;;
36355;SDS011;22384;54.302;18.596;2024-02-16T06:40:29;69.75;;;37.40;;
36355;SDS011;22384;54.302;18.596;2024-02-16T06:42:55;69.90;;;36.03;;
36355;SDS011;22384;54.302;18.596;2024-02-16T06:45:22;76.47;;;38.20;;
36355;SDS011;22384;54.302;18.596;2024-02-16T06:47:48;68.55;;;37.70;;
36355;SDS011;22384;54.302;18.596;2024-02-16T06:50:14;79.78;;;38.88;;
36355;SDS011;22384;54.302;18.596;2024-02-16T06:52:40;79.20;;;37.95;;
36355;SDS011;22384;54.302;18.596;2024-02-16T06:55:07;71.93;;;37.67;;
36355;SDS011;22384;54.302;18.596;2024-02-16T06:57:33;76.10;;;40.53;;
36355;SDS011;22384;54.302;18.596;2024-02-16T06:59:59;68.70;;;38.45;;
36355;SDS011;22384;54.302;18.596;2024-02-16T07:02:25;68.95;;;37.00;;
36355;SDS011;22384;54.302;18.596;2024-02-16T07:04:51;61.72;;;37.50;;
36355;SDS011;22384;54.302;18.596;2024-02-16T07:07:17;70.22;;;37.83;;
36355;SDS011;22384;54.302;18.596;2024-02-16T07:09:44;76.25;;;37.65;;
36355;SDS011;22384;54.302;18.596;2024-02-16T07:12:10;66.82;;;37.35;;
36355;SDS011;22384;54.302;18.596;2024-02-16T07:14:37;63.45;;;36.83;;
36355;SDS011;22384;54.302;18.596;2024-02-16T07:17:04;67.57;;;36.35;;
36355;SDS011;22384;54.302;18.596;2024-02-16T07:19:34;80.00;;;37.83;;
36355;SDS011;22384;54.302;18.596;2024-02-16T07:22:00;62.80;;;36.10;;
36355;SDS011;22384;54.302;18.596;2024-02-16T07:24:26;66.00;;;35.08;;
36355;SDS011;22384;54.302;18.596;2024-02-16T07:26:52;65.72;;;36.67;;
36355;SDS011;22384;54.302;18.596;2024-02-16T07:29:18;71.57;;;37.45;;
36355;SDS011;22384;54.302;18.596;2024-02-16T07:31:44;65.53;;;35.78;;
36355;SDS011;22384;54.302;18.596;2024-02-16T07:34:10;59.65;;;35.35;;
36355;SDS011;22384;54.302;18.596;2024-02-16T07:36:37;60.38;;;35.80;;
36355;SDS011;22384;54.302;18.596;2024-02-16T07:39:03;60.13;;;34.55;;
36355;SDS011;22384;54.302;18.596;2024-02-16T07:41:29;57.20;;;34.47;;
36355;SDS011;22384;54.302;18.596;2024-02-16T07:43:55;62.28;;;35.00;;
36355;SDS011;22384;54.302;18.596;2024-02-16T07:46:22;73.80;;;38.08;;
36355;SDS011;22384;54.302;18.596;2024-02-16T07:48:48;65.10;;;35.08;;
36355;SDS011;22384;54.302;18.596;2024-02-16T07:51:14;67.40;;;36.08;;
36355;SDS011;22384;54.302;18.596;2024-02-16T07:53:40;66.68;;;36.45;;
36355;SDS011;22384;54.302;18.596;2024-02-16T07:56:09;64.20;;;34.42;;
36355;SDS011;22384;54.302;18.596;2024-02-16T07:58:35;64.35;;;35.40;;
36355;SDS011;22384;54.302;18.596;2024-02-16T08:01:01;60.67;;;35.30;;
36355;SDS011;22384;54.302;18.596;2024-02-16T08:03:27;61.58;;;34.72;;
36355;SDS011;22384;54.302;18.596;2024-02-16T08:05:55;60.47;;;34.40;;
36355;SDS011;22384;54.302;18.596;2024-02-16T08:08:24;57.83;;;33.80;;
36355;SDS011;22384;54.302;18.596;2024-02-16T08:10:50;54.03;;;32.53;;
36355;SDS011;22384;54.302;18.596;2024-02-16T08:13:17;53.80;;;32.97;;
36355;SDS011;22384;54.302;18.596;2024-02-16T08:15:43;59.00;;;32.60;;
36355;SDS011;22384;54.302;18.596;2024-02-16T08:18:09;52.05;;;31.13;;
36355;SDS011;22384;54.302;18.596;2024-02-16T08:20:36;47.58;;;30.02;;
36355;SDS011;22384;54.302;18.596;2024-02-16T08:23:02;54.05;;;31.27;;
36355;SDS011;22384;54.302;18.596;2024-02-16T08:25:29;58.00;;;32.33;;
36355;SDS011;22384;54.302;18.596;2024-02-16T08:27:55;53.30;;;31.13;;
36355;SDS011;22384;54.302;18.596;2024-02-16T08:30:22;57.58;;;32.00;;
36355;SDS011;22384;54.302;18.596;2024-02-16T08:32:50;49.80;;;30.45;;
36355;SDS011;22384;54.302;18.596;2024-02-16T08:35:16;48.72;;;29.65;;
36355;SDS011;22384;54.302;18.596;2024-02-16T08:37:43;52.05;;;30.02;;
36355;SDS011;22384;54.302;18.596;2024-02-16T08:40:12;50.17;;;30.70;;
36355;SDS011;22384;54.302;18.596;2024-02-16T08:42:40;50.63;;;30.65;;
36355;SDS011;22384;54.302;18.596;2024-02-16T08:45:07;56.95;;;30.98;;
36355;SDS011;22384;54.302;18.596;2024-02-16T08:47:33;52.17;;;29.98;;
36355;SDS011;22384;54.302;18.596;2024-02-16T08:49:59;64.10;;;32.53;;
36355;SDS011;22384;54.302;18.596;2024-02-16T08:52:26;55.15;;;30.83;;
36355;SDS011;22384;54.302;18.596;2024-02-16T08:54:52;48.17;;;28.70;;
36355;SDS011;22384;54.302;18.596;2024-02-16T08:57:18;46.28;;;28.42;;
36355;SDS011;22384;54.302;18.596;2024-02-16T08:59:45;47.55;;;28.33;;
36355;SDS011;22384;54.302;18.596;2024-02-16T09:02:11;60.42;;;32.03;;
36355;SDS011;22384;54.302;18.596;2024-02-16T09:04:37;52.10;;;29.92;;
36355;SDS011;22384;54.302;18.596;2024-02-16T09:07:04;57.53;;;30.35;;
36355;SDS011;22384;54.302;18.596;2024-02-16T09:09:30;58.88;;;29.75;;
36355;SDS011;22384;54.302;18.596;2024-02-16T09:11:56;68.45;;;32.08;;
36355;SDS011;22384;54.302;18.596;2024-02-16T09:14:22;58.33;;;30.10;;
36355;SDS011;22384;54.302;18.596;2024-02-16T09:16:49;49.80;;;27.75;;
36355;SDS011;22384;54.302;18.596;2024-02-16T09:19:18;53.50;;;28.42;;
36355;SDS011;22384;54.302;18.596;2024-02-16T09:21:48;52.33;;;29.80;;
36355;SDS011;22384;54.302;18.596;2024-02-16T09:24:14;44.00;;;27.00;;
36355;SDS011;22384;54.302;18.596;2024-02-16T09:26:43;49.30;;;27.23;;
36355;SDS011;22384;54.302;18.596;2024-02-16T09:29:11;56.72;;;30.70;;
36355;SDS011;22384;54.302;18.596;2024-02-16T09:31:37;46.10;;;27.35;;
36355;SDS011;22384;54.302;18.596;2024-02-16T09:34:04;55.60;;;30.38;;
36355;SDS011;22384;54.302;18.596;2024-02-16T09:36:30;59.97;;;31.30;;
36355;SDS011;22384;54.302;18.596;2024-02-16T09:38:57;73.55;;;33.28;;
36355;SDS011;22384;54.302;18.596;2024-02-16T09:41:23;49.15;;;28.83;;
36355;SDS011;22384;54.302;18.596;2024-02-16T09:43:50;40.95;;;28.02;;
36355;SDS011;22384;54.302;18.596;2024-02-16T09:46:19;47.30;;;27.88;;
36355;SDS011;22384;54.302;18.596;2024-02-16T09:48:45;45.15;;;27.15;;
36355;SDS011;22384;54.302;18.596;2024-02-16T09:51:13;45.08;;;25.90;;
36355;SDS011;22384;54.302;18.596;2024-02-16T09:53:41;47.55;;;28.52;;
36355;SDS011;22384;54.302;18.596;2024-02-16T09:56:07;50.85;;;28.50;;
36355;SDS011;22384;54.302;18.596;2024-02-16T09:58:34;57.90;;;30.67;;
36355;SDS011;22384;54.302;18.596;2024-02-16T10:01:00;40.88;;;26.80;;
36355;SDS011;22384;54.302;18.596;2024-02-16T10:03:28;43.13;;;25.90;;
36355;SDS011;22384;54.302;18.596;2024-02-16T10:06:07;48.55;;;27.55;;
36355;SDS011;22384;54.302;18.596;2024-02-16T10:08:34;52.55;;;29.58;;
36355;SDS011;22384;54.302;18.596;2024-02-16T10:11:01;45.85;;;27.52;;
36355;SDS011;22384;54.302;18.596;2024-02-16T10:13:28;49.28;;;27.30;;
36355;SDS011;22384;54.302;18.596;2024-02-16T10:16:04;47.47;;;25.60;;
36355;SDS011;22384;54.302;18.596;2024-02-16T10:18:31;43.88;;;25.48;;
36355;SDS011;22384;54.302;18.596;2024-02-16T10:20:57;42.83;;;23.98;;
36355;SDS011;22384;54.302;18.596;2024-02-16T10:23:23;49.90;;;26.67;;
36355;SDS011;22384;54.302;18.596;2024-02-16T10:25:49;52.45;;;27.65;;
36355;SDS011;22384;54.302;18.596;2024-02-16T10:28:15;34.78;;;22.55;;
36355;SDS011;22384;54.302;18.596;2024-02-16T10:30:42;35.65;;;22.58;;
36355;SDS011;22384;54.302;18.596;2024-02-16T10:33:09;48.08;;;22.95;;
36355;SDS011;22384;54.302;18.596;2024-02-16T10:35:35;37.70;;;21.90;;
36355;SDS011;22384;54.302;18.596;2024-02-16T10:38:02;33.00;;;20.55;;
36355;SDS011;22384;54.302;18.596;2024-02-16T10:40:37;36.13;;;20.63;;
36355;SDS011;22384;54.302;18.596;2024-02-16T10:43:04;35.47;;;19.92;;
36355;SDS011;22384;54.302;18.596;2024-02-16T10:45:33;28.48;;;18.50;;
36355;SDS011;22384;54.302;18.596;2024-02-16T10:48:02;35.00;;;18.23;;
36355;SDS011;22384;54.302;18.596;2024-02-16T10:50:29;28.75;;;17.85;;
36355;SDS011;22384;54.302;18.596;2024-02-16T10:52:56;24.10;;;15.40;;
36355;SDS011;22384;54.302;18.596;2024-02-16T10:55:24;27.33;;;16.92;;
36355;SDS011;22384;54.302;18.596;2024-02-16T10:57:50;30.55;;;16.80;;
36355;SDS011;22384;54.302;18.596;2024-02-16T11:00:19;28.98;;;16.52;;
36355;SDS011;22384;54.302;18.596;2024-02-16T11:02:55;23.50;;;15.02;;
36355;SDS011;22384;54.302;18.596;2024-02-16T11:08:02;28.70;;;13.48;;
36355;SDS011;22384;54.302;18.596;2024-02-16T11:10:29;21.67;;;14.07;;
36355;SDS011;22384;54.302;18.596;2024-02-16T11:12:59;25.92;;;13.45;;
36355;SDS011;22384;54.302;18.596;2024-02-16T11:15:30;20.55;;;12.65;;
36355;SDS011;22384;54.302;18.596;2024-02-16T11:17:57;22.08;;;12.23;;
36355;SDS011;22384;54.302;18.596;2024-02-16T11:20:24;19.77;;;12.10;;
36355;SDS011;22384;54.302;18.596;2024-02-16T11:22:52;20.75;;;12.60;;
36355;SDS011;22384;54.302;18.596;2024-02-16T11:25:18;20.08;;;11.63;;
36355;SDS011;22384;54.302;18.596;2024-02-16T11:27:46;20.50;;;11.77;;
36355;SDS011;22384;54.302;18.596;2024-02-16T11:30:13;19.83;;;11.50;;
36355;SDS011;22384;54.302;18.596;2024-02-16T11:32:41;20.55;;;11.43;;
36355;SDS011;22384;54.302;18.596;2024-02-16T11:35:08;25.10;;;11.73;;
36355;SDS011;22384;54.302;18.596;2024-02-16T11:37:34;18.95;;;11.45;;
36355;SDS011;22384;54.302;18.596;2024-02-16T11:40:01;21.20;;;11.95;;
36355;SDS011;22384;54.302;18.596;2024-02-16T11:42:27;21.85;;;11.10;;
36355;SDS011;22384;54.302;18.596;2024-02-16T11:44:54;22.83;;;11.60;;
36355;SDS011;22384;54.302;18.596;2024-02-16T11:47:20;21.15;;;11.15;;
36355;SDS011;22384;54.302;18.596;2024-02-16T11:50:00;26.30;;;11.25;;
36355;SDS011;22384;54.302;18.596;2024-02-16T11:52:26;16.60;;;10.95;;
36355;SDS011;22384;54.302;18.596;2024-02-16T11:54:52;18.60;;;11.43;;
36355;SDS011;22384;54.302;18.596;2024-02-16T11:57:18;21.60;;;11.73;;
36355;SDS011;22384;54.302;18.596;2024-02-16T11:59:44;23.65;;;12.07;;
36355;SDS011;22384;54.302;18.596;2024-02-16T12:02:16;19.75;;;11.98;;
36355;SDS011;22384;54.302;18.596;2024-02-16T12:04:44;25.38;;;11.57;;
36355;SDS011;22384;54.302;18.596;2024-02-16T12:07:12;23.52;;;12.75;;
36355;SDS011;22384;54.302;18.596;2024-02-16T12:09:39;21.00;;;11.95;;
36355;SDS011;22384;54.302;18.596;2024-02-16T12:12:05;18.27;;;11.40;;
36355;SDS011;22384;54.302;18.596;2024-02-16T12:14:32;24.65;;;12.95;;
36355;SDS011;22384;54.302;18.596;2024-02-16T12:16:58;19.77;;;11.30;;
36355;SDS011;22384;54.302;18.596;2024-02-16T12:19:24;20.50;;;12.23;;
36355;SDS011;22384;54.302;18.596;2024-02-16T12:21:51;20.50;;;12.73;;
36355;SDS011;22384;54.302;18.596;2024-02-16T12:24:17;19.25;;;11.35;;
36355;SDS011;22384;54.302;18.596;2024-02-16T12:26:43;19.10;;;11.60;;
36355;SDS011;22384;54.302;18.596;2024-02-16T12:29:09;22.25;;;12.32;;
36355;SDS011;22384;54.302;18.596;2024-02-16T12:31:41;19.77;;;12.20;;
36355;SDS011;22384;54.302;18.596;2024-02-16T12:34:08;25.58;;;14.02;;
36355;SDS011;22384;54.302;18.596;2024-02-16T12:36:34;23.75;;;13.90;;
36355;SDS011;22384;54.302;18.596;2024-02-16T12:39:01;22.58;;;12.57;;
36355;SDS011;22384;54.302;18.596;2024-02-16T12:41:29;23.00;;;12.63;;
36355;SDS011;22384;54.302;18.596;2024-02-16T12:43:55;24.98;;;13.80;;
36355;SDS011;22384;54.302;18.596;2024-02-16T12:46:21;23.95;;;12.32;;
36355;SDS011;22384;54.302;18.596;2024-02-16T12:48:47;23.52;;;13.10;;
36355;SDS011;22384;54.302;18.596;2024-02-16T12:51:13;17.85;;;11.07;;
36355;SDS011;22384;54.302;18.596;2024-02-16T12:53:40;19.08;;;10.57;;
36355;SDS011;22384;54.302;18.596;2024-02-16T12:56:07;21.02;;;11.48;;
36355;SDS011;22384;54.302;18.596;2024-02-16T12:58:33;23.65;;;10.55;;
36355;SDS011;22384;54.302;18.596;2024-02-16T13:01:00;17.92;;;10.50;;
36355;SDS011;22384;54.302;18.596;2024-02-16T13:03:26;18.05;;;10.10;;
36355;SDS011;22384;54.302;18.596;2024-02-16T13:05:52;27.60;;;12.40;;
36355;SDS011;22384;54.302;18.596;2024-02-16T13:08:18;14.73;;;9.57;;
36355;SDS011;22384;54.302;18.596;2024-02-16T13:10:44;17.05;;;9.88;;
36355;SDS011;22384;54.302;18.596;2024-02-16T13:13:10;26.35;;;12.35;;
36355;SDS011;22384;54.302;18.596;2024-02-16T13:15:36;29.60;;;11.20;;
36355;SDS011;22384;54.302;18.596;2024-02-16T13:18:02;18.83;;;11.05;;
36355;SDS011;22384;54.302;18.596;2024-02-16T13:20:28;21.25;;;12.15;;
36355;SDS011;22384;54.302;18.596;2024-02-16T13:22:55;19.20;;;9.80;;
36355;SDS011;22384;54.302;18.596;2024-02-16T13:25:21;15.27;;;9.65;;
36355;SDS011;22384;54.302;18.596;2024-02-16T13:27:47;20.90;;;10.98;;
36355;SDS011;22384;54.302;18.596;2024-02-16T13:30:13;44.67;;;18.73;;
36355;SDS011;22384;54.302;18.596;2024-02-16T13:32:39;18.02;;;10.93;;
36355;SDS011;22384;54.302;18.596;2024-02-16T13:35:06;27.17;;;12.45;;
36355;SDS011;22384;54.302;18.596;2024-02-16T13:37:32;16.05;;;10.02;;
36355;SDS011;22384;54.302;18.596;2024-02-16T13:39:58;22.45;;;12.07;;
36355;SDS011;22384;54.302;18.596;2024-02-16T13:42:24;22.30;;;12.10;;
36355;SDS011;22384;54.302;18.596;2024-02-16T13:44:51;20.63;;;10.35;;
36355;SDS011;22384;54.302;18.596;2024-02-16T13:47:18;28.05;;;12.85;;
36355;SDS011;22384;54.302;18.596;2024-02-16T13:49:44;21.35;;;10.10;;
36355;SDS011;22384;54.302;18.596;2024-02-16T13:52:12;17.67;;;10.68;;
36355;SDS011;22384;54.302;18.596;2024-02-16T13:54:38;34.95;;;14.93;;
36355;SDS011;22384;54.302;18.596;2024-02-16T13:57:04;78.60;;;24.67;;
36355;SDS011;22384;54.302;18.596;2024-02-16T13:59:30;49.35;;;17.17;;
36355;SDS011;22384;54.302;18.596;2024-02-16T14:01:58;129.90;;;31.40;;
36355;SDS011;22384;54.302;18.596;2024-02-16T14:04:24;71.38;;;20.77;;
36355;SDS011;22384;54.302;18.596;2024-02-16T14:06:51;48.85;;;17.33;;